sensor_id;sensor_type;location;lat;lon;timestamp;P1;durP1;ratioP1;P2;durP2;ratioP2
80400;SDS011;69727;53.132;8.230;2023-06-19T00:02:01;8.27;;;6.10;;
80400;SDS011;69727;53.132;8.230;2023-06-19T00:04:26;8.38;;;5.72;;
80400;SDS011;69727;53.132;8.230;2023-06-19T00:06:52;8.10;;;5.45;;
80400;SDS011;69727;53.132;8.230;2023-06-19T00:09:18;7.82;;;5.32;;
80400;SDS011;69727;53.132;8.230;2023-06-19T00:11:44;9.23;;;5.68;;
80400;SDS011;69727;53.132;8.230;2023-06-19T00:14:10;7.88;;;5.32;;
80400;SDS011;69727;53.132;8.230;2023-06-19T00:16:35;7.72;;;5.60;;
80400;SDS011;69727;53.132;8.230;2023-06-19T00:19:01;7.13;;;4.82;;
80400;SDS011;69727;53.132;8.230;2023-06-19T00:21:28;6.70;;;5.10;;
80400;SDS011;69727;53.132;8.230;2023-06-19T00:23:54;9.00;;;5.40;;
80400;SDS011;69727;53.132;8.230;2023-06-19T00:26:20;9.32;;;5.50;;
80400;SDS011;69727;53.132;8.230;2023-06-19T00:28:48;7.32;;;5.28;;
80400;SDS011;69727;53.132;8.230;2023-06-19T00:31:14;8.82;;;5.88;;
80400;SDS011;69727;53.132;8.230;2023-06-19T00:33:40;8.02;;;5.70;;
80400;SDS011;69727;53.132;8.230;2023-06-19T00:36:09;9.13;;;5.40;;
80400;SDS011;69727;53.132;8.230;2023-06-19T00:38:36;8.05;;;6.18;;
80400;SDS011;69727;53.132;8.230;2023-06-19T00:41:01;8.23;;;5.88;;
80400;SDS011;69727;53.132;8.230;2023-06-19T00:43:28;8.07;;;5.55;;
80400;SDS011;69727;53.132;8.230;2023-06-19T00:45:53;8.93;;;5.47;;
80400;SDS011;69727;53.132;8.230;2023-06-19T00:50:48;9.35;;;5.70;;
80400;SDS011;69727;53.132;8.230;2023-06-19T00:53:14;9.10;;;5.80;;
80400;SDS011;69727;53.132;8.230;2023-06-19T00:55:40;8.98;;;5.53;;
80400;SDS011;69727;53.132;8.230;2023-06-19T00:58:05;8.50;;;5.63;;
80400;SDS011;69727;53.132;8.230;2023-06-19T01:00:31;8.30;;;5.38;;
80400;SDS011;69727;53.132;8.230;2023-06-19T01:02:57;7.50;;;5.40;;
80400;SDS011;69727;53.132;8.230;2023-06-19T01:05:23;8.45;;;5.63;;
80400;SDS011;69727;53.132;8.230;2023-06-19T01:10:49;9.20;;;5.75;;
80400;SDS011;69727;53.132;8.230;2023-06-19T01:13:23;8.48;;;5.50;;
80400;SDS011;69727;53.132;8.230;2023-06-19T01:16:09;12.85;;;6.25;;
80400;SDS011;69727;53.132;8.230;2023-06-19T01:18:36;6.68;;;4.95;;
80400;SDS011;69727;53.132;8.230;2023-06-19T01:21:09;7.72;;;5.75;;
80400;SDS011;69727;53.132;8.230;2023-06-19T01:23:35;8.60;;;5.57;;
80400;SDS011;69727;53.132;8.230;2023-06-19T01:26:01;8.50;;;6.00;;
80400;SDS011;69727;53.132;8.230;2023-06-19T01:28:26;6.93;;;5.37;;
80400;SDS011;69727;53.132;8.230;2023-06-19T01:30:52;9.07;;;6.25;;
80400;SDS011;69727;53.132;8.230;2023-06-19T01:33:20;9.05;;;5.63;;
80400;SDS011;69727;53.132;8.230;2023-06-19T01:35:51;9.23;;;6.03;;
80400;SDS011;69727;53.132;8.230;2023-06-19T01:38:17;7.65;;;5.38;;
80400;SDS011;69727;53.132;8.230;2023-06-19T01:40:45;7.75;;;5.32;;
80400;SDS011;69727;53.132;8.230;2023-06-19T01:43:13;9.05;;;5.47;;
80400;SDS011;69727;53.132;8.230;2023-06-19T01:45:40;9.82;;;5.78;;
80400;SDS011;69727;53.132;8.230;2023-06-19T01:48:07;7.90;;;5.22;;
80400;SDS011;69727;53.132;8.230;2023-06-19T01:50:33;9.43;;;5.95;;
80400;SDS011;69727;53.132;8.230;2023-06-19T01:52:58;8.90;;;5.68;;
80400;SDS011;69727;53.132;8.230;2023-06-19T01:55:24;37.85;;;6.13;;
80400;SDS011;69727;53.132;8.230;2023-06-19T01:57:49;8.77;;;5.85;;
80400;SDS011;69727;53.132;8.230;2023-06-19T02:00:15;7.70;;;5.45;;
80400;SDS011;69727;53.132;8.230;2023-06-19T02:02:40;7.93;;;5.50;;
80400;SDS011;69727;53.132;8.230;2023-06-19T02:05:06;7.68;;;5.25;;
80400;SDS011;69727;53.132;8.230;2023-06-19T02:07:31;7.47;;;5.32;;
80400;SDS011;69727;53.132;8.230;2023-06-19T02:09:57;7.97;;;5.63;;
80400;SDS011;69727;53.132;8.230;2023-06-19T02:12:23;8.10;;;5.50;;
80400;SDS011;69727;53.132;8.230;2023-06-19T02:14:48;8.50;;;5.65;;
80400;SDS011;69727;53.132;8.230;2023-06-19T02:17:14;8.15;;;6.25;;
80400;SDS011;69727;53.132;8.230;2023-06-19T02:19:39;7.38;;;5.38;;
80400;SDS011;69727;53.132;8.230;2023-06-19T02:22:05;9.85;;;5.53;;
80400;SDS011;69727;53.132;8.230;2023-06-19T02:24:31;9.07;;;4.85;;
80400;SDS011;69727;53.132;8.230;2023-06-19T02:26:57;8.65;;;5.40;;
80400;SDS011;69727;53.132;8.230;2023-06-19T02:29:22;7.78;;;5.47;;
80400;SDS011;69727;53.132;8.230;2023-06-19T02:31:47;7.45;;;5.22;;
80400;SDS011;69727;53.132;8.230;2023-06-19T02:34:13;7.90;;;5.28;;
80400;SDS011;69727;53.132;8.230;2023-06-19T02:36:39;7.20;;;5.13;;
80400;SDS011;69727;53.132;8.230;2023-06-19T02:39:04;9.57;;;5.45;;
80400;SDS011;69727;53.132;8.230;2023-06-19T02:41:31;7.38;;;5.03;;
80400;SDS011;69727;53.132;8.230;2023-06-19T02:43:56;7.63;;;5.10;;
80400;SDS011;69727;53.132;8.230;2023-06-19T02:46:22;8.20;;;5.40;;
80400;SDS011;69727;53.132;8.230;2023-06-19T02:48:47;9.53;;;5.60;;
80400;SDS011;69727;53.132;8.230;2023-06-19T02:51:12;7.53;;;4.90;;
80400;SDS011;69727;53.132;8.230;2023-06-19T02:53:38;7.78;;;5.35;;
80400;SDS011;69727;53.132;8.230;2023-06-19T02:56:03;8.40;;;5.22;;
80400;SDS011;69727;53.132;8.230;2023-06-19T02:58:29;7.50;;;5.40;;
80400;SDS011;69727;53.132;8.230;2023-06-19T03:00:56;7.53;;;5.40;;
80400;SDS011;69727;53.132;8.230;2023-06-19T03:03:21;7.85;;;5.28;;
80400;SDS011;69727;53.132;8.230;2023-06-19T03:05:47;7.28;;;5.22;;
80400;SDS011;69727;53.132;8.230;2023-06-19T03:08:13;7.60;;;5.85;;
80400;SDS011;69727;53.132;8.230;2023-06-19T03:10:38;8.30;;;5.43;;
80400;SDS011;69727;53.132;8.230;2023-06-19T03:13:04;7.33;;;5.30;;
80400;SDS011;69727;53.132;8.230;2023-06-19T03:15:29;7.95;;;5.60;;
80400;SDS011;69727;53.132;8.230;2023-06-19T03:17:55;8.77;;;5.70;;
80400;SDS011;69727;53.132;8.230;2023-06-19T03:20:20;7.70;;;5.22;;
80400;SDS011;69727;53.132;8.230;2023-06-19T03:22:45;8.50;;;5.60;;
80400;SDS011;69727;53.132;8.230;2023-06-19T03:25:11;7.00;;;4.97;;
80400;SDS011;69727;53.132;8.230;2023-06-19T03:27:37;7.20;;;5.03;;
80400;SDS011;69727;53.132;8.230;2023-06-19T03:30:03;8.70;;;5.25;;
80400;SDS011;69727;53.132;8.230;2023-06-19T03:32:33;7.78;;;5.55;;
80400;SDS011;69727;53.132;8.230;2023-06-19T03:34:59;7.38;;;4.97;;
80400;SDS011;69727;53.132;8.230;2023-06-19T03:37:24;7.20;;;5.18;;
80400;SDS011;69727;53.132;8.230;2023-06-19T03:39:50;6.05;;;4.47;;
80400;SDS011;69727;53.132;8.230;2023-06-19T03:42:15;7.13;;;5.05;;
80400;SDS011;69727;53.132;8.230;2023-06-19T03:44:40;7.90;;;5.43;;
80400;SDS011;69727;53.132;8.230;2023-06-19T03:47:06;7.50;;;5.30;;
80400;SDS011;69727;53.132;8.230;2023-06-19T03:49:32;6.97;;;5.20;;
80400;SDS011;69727;53.132;8.230;2023-06-19T03:51:57;7.95;;;5.60;;
80400;SDS011;69727;53.132;8.230;2023-06-19T03:54:22;6.73;;;4.67;;
80400;SDS011;69727;53.132;8.230;2023-06-19T03:56:48;7.80;;;5.18;;
80400;SDS011;69727;53.132;8.230;2023-06-19T03:59:13;7.53;;;5.40;;
80400;SDS011;69727;53.132;8.230;2023-06-19T04:01:39;7.28;;;4.93;;
80400;SDS011;69727;53.132;8.230;2023-06-19T04:04:05;7.72;;;5.55;;
80400;SDS011;69727;53.132;8.230;2023-06-19T04:06:31;8.77;;;5.18;;
80400;SDS011;69727;53.132;8.230;2023-06-19T04:08:56;8.20;;;5.38;;
80400;SDS011;69727;53.132;8.230;2023-06-19T04:11:21;8.57;;;5.22;;
80400;SDS011;69727;53.132;8.230;2023-06-19T04:13:47;7.38;;;4.85;;
80400;SDS011;69727;53.132;8.230;2023-06-19T04:16:12;7.13;;;5.13;;
80400;SDS011;69727;53.132;8.230;2023-06-19T04:18:38;6.93;;;5.32;;
80400;SDS011;69727;53.132;8.230;2023-06-19T04:21:03;8.52;;;5.70;;
80400;SDS011;69727;53.132;8.230;2023-06-19T04:23:28;7.50;;;5.32;;
80400;SDS011;69727;53.132;8.230;2023-06-19T04:25:54;7.47;;;5.13;;
80400;SDS011;69727;53.132;8.230;2023-06-19T04:28:19;7.60;;;5.53;;
80400;SDS011;69727;53.132;8.230;2023-06-19T04:30:45;7.18;;;5.03;;
80400;SDS011;69727;53.132;8.230;2023-06-19T04:33:10;8.43;;;5.72;;
80400;SDS011;69727;53.132;8.230;2023-06-19T04:35:35;8.00;;;5.37;;
80400;SDS011;69727;53.132;8.230;2023-06-19T04:38:05;6.45;;;4.75;;
80400;SDS011;69727;53.132;8.230;2023-06-19T04:40:31;7.50;;;5.30;;
80400;SDS011;69727;53.132;8.230;2023-06-19T04:42:57;8.35;;;4.90;;
80400;SDS011;69727;53.132;8.230;2023-06-19T04:45:22;12.70;;;5.38;;
80400;SDS011;69727;53.132;8.230;2023-06-19T04:47:48;7.18;;;4.68;;
80400;SDS011;69727;53.132;8.230;2023-06-19T04:50:13;10.70;;;5.77;;
80400;SDS011;69727;53.132;8.230;2023-06-19T04:52:40;8.27;;;5.95;;
80400;SDS011;69727;53.132;8.230;2023-06-19T04:55:06;7.57;;;5.07;;
80400;SDS011;69727;53.132;8.230;2023-06-19T05:00:00;7.30;;;5.07;;
80400;SDS011;69727;53.132;8.230;2023-06-19T05:02:25;8.18;;;5.97;;
80400;SDS011;69727;53.132;8.230;2023-06-19T05:04:51;7.93;;;5.37;;
80400;SDS011;69727;53.132;8.230;2023-06-19T05:07:16;8.63;;;5.40;;
80400;SDS011;69727;53.132;8.230;2023-06-19T05:09:42;10.05;;;5.55;;
80400;SDS011;69727;53.132;8.230;2023-06-19T05:12:09;8.05;;;5.32;;
80400;SDS011;69727;53.132;8.230;2023-06-19T05:14:34;8.73;;;5.38;;
80400;SDS011;69727;53.132;8.230;2023-06-19T05:17:00;7.40;;;5.30;;
80400;SDS011;69727;53.132;8.230;2023-06-19T05:19:25;8.35;;;5.80;;
80400;SDS011;69727;53.132;8.230;2023-06-19T05:21:51;7.30;;;5.28;;
80400;SDS011;69727;53.132;8.230;2023-06-19T05:24:16;7.93;;;5.10;;
80400;SDS011;69727;53.132;8.230;2023-06-19T05:26:42;10.85;;;6.55;;
80400;SDS011;69727;53.132;8.230;2023-06-19T05:29:07;9.70;;;6.00;;
80400;SDS011;69727;53.132;8.230;2023-06-19T05:31:33;9.10;;;5.80;;
80400;SDS011;69727;53.132;8.230;2023-06-19T05:33:59;9.55;;;6.30;;
80400;SDS011;69727;53.132;8.230;2023-06-19T05:36:24;10.00;;;5.63;;
80400;SDS011;69727;53.132;8.230;2023-06-19T05:38:50;7.63;;;5.82;;
80400;SDS011;69727;53.132;8.230;2023-06-19T05:41:15;9.82;;;6.32;;
80400;SDS011;69727;53.132;8.230;2023-06-19T05:43:41;9.52;;;6.10;;
80400;SDS011;69727;53.132;8.230;2023-06-19T05:46:06;9.07;;;5.15;;
80400;SDS011;69727;53.132;8.230;2023-06-19T05:48:32;8.13;;;5.18;;
80400;SDS011;69727;53.132;8.230;2023-06-19T05:50:57;7.95;;;5.07;;
80400;SDS011;69727;53.132;8.230;2023-06-19T05:53:22;9.23;;;5.57;;
80400;SDS011;69727;53.132;8.230;2023-06-19T05:55:48;9.45;;;5.80;;
80400;SDS011;69727;53.132;8.230;2023-06-19T05:58:13;8.35;;;5.80;;
80400;SDS011;69727;53.132;8.230;2023-06-19T06:00:39;8.57;;;5.57;;
80400;SDS011;69727;53.132;8.230;2023-06-19T06:03:04;9.02;;;5.90;;
80400;SDS011;69727;53.132;8.230;2023-06-19T06:05:30;8.18;;;6.00;;
80400;SDS011;69727;53.132;8.230;2023-06-19T06:07:56;8.43;;;6.18;;
80400;SDS011;69727;53.132;8.230;2023-06-19T06:10:22;8.80;;;6.10;;
80400;SDS011;69727;53.132;8.230;2023-06-19T06:12:49;9.18;;;6.10;;
80400;SDS011;69727;53.132;8.230;2023-06-19T06:15:14;9.57;;;6.20;;
80400;SDS011;69727;53.132;8.230;2023-06-19T06:17:40;8.88;;;5.93;;
80400;SDS011;69727;53.132;8.230;2023-06-19T06:20:06;10.55;;;6.00;;
80400;SDS011;69727;53.132;8.230;2023-06-19T06:22:37;8.27;;;5.95;;
80400;SDS011;69727;53.132;8.230;2023-06-19T06:25:04;8.52;;;6.03;;
80400;SDS011;69727;53.132;8.230;2023-06-19T06:27:29;8.63;;;5.90;;
80400;SDS011;69727;53.132;8.230;2023-06-19T06:29:55;9.95;;;6.28;;
80400;SDS011;69727;53.132;8.230;2023-06-19T06:32:20;10.73;;;6.43;;
80400;SDS011;69727;53.132;8.230;2023-06-19T06:34:46;9.23;;;6.27;;
80400;SDS011;69727;53.132;8.230;2023-06-19T06:37:11;10.45;;;5.97;;
80400;SDS011;69727;53.132;8.230;2023-06-19T06:39:36;10.33;;;6.40;;
80400;SDS011;69727;53.132;8.230;2023-06-19T06:42:03;8.07;;;6.03;;
80400;SDS011;69727;53.132;8.230;2023-06-19T06:44:29;8.75;;;6.32;;
80400;SDS011;69727;53.132;8.230;2023-06-19T06:46:54;10.15;;;5.88;;
80400;SDS011;69727;53.132;8.230;2023-06-19T06:49:20;11.05;;;6.93;;
80400;SDS011;69727;53.132;8.230;2023-06-19T06:51:46;11.38;;;6.45;;
80400;SDS011;69727;53.132;8.230;2023-06-19T06:54:12;10.93;;;6.60;;
80400;SDS011;69727;53.132;8.230;2023-06-19T06:56:37;9.20;;;6.63;;
80400;SDS011;69727;53.132;8.230;2023-06-19T06:59:03;10.03;;;7.13;;
80400;SDS011;69727;53.132;8.230;2023-06-19T07:01:28;10.23;;;6.90;;
80400;SDS011;69727;53.132;8.230;2023-06-19T07:03:54;9.40;;;6.63;;
80400;SDS011;69727;53.132;8.230;2023-06-19T07:06:19;12.97;;;6.60;;
80400;SDS011;69727;53.132;8.230;2023-06-19T07:08:44;10.00;;;6.10;;
80400;SDS011;69727;53.132;8.230;2023-06-19T07:11:12;9.40;;;6.35;;
80400;SDS011;69727;53.132;8.230;2023-06-19T07:13:38;10.20;;;6.72;;
80400;SDS011;69727;53.132;8.230;2023-06-19T07:16:03;9.40;;;6.38;;
80400;SDS011;69727;53.132;8.230;2023-06-19T07:18:30;11.20;;;6.10;;
80400;SDS011;69727;53.132;8.230;2023-06-19T07:20:55;8.27;;;5.50;;
80400;SDS011;69727;53.132;8.230;2023-06-19T07:23:20;8.45;;;5.55;;
80400;SDS011;69727;53.132;8.230;2023-06-19T07:25:46;9.85;;;6.10;;
80400;SDS011;69727;53.132;8.230;2023-06-19T07:28:12;10.10;;;5.93;;
80400;SDS011;69727;53.132;8.230;2023-06-19T07:30:38;9.40;;;5.63;;
80400;SDS011;69727;53.132;8.230;2023-06-19T07:33:04;10.75;;;6.28;;
80400;SDS011;69727;53.132;8.230;2023-06-19T07:35:29;8.80;;;5.50;;
80400;SDS011;69727;53.132;8.230;2023-06-19T07:37:55;8.48;;;5.22;;
80400;SDS011;69727;53.132;8.230;2023-06-19T07:40:20;8.73;;;5.30;;
80400;SDS011;69727;53.132;8.230;2023-06-19T07:42:46;10.38;;;6.28;;
80400;SDS011;69727;53.132;8.230;2023-06-19T07:45:12;7.75;;;5.53;;
80400;SDS011;69727;53.132;8.230;2023-06-19T07:47:38;7.55;;;5.50;;
80400;SDS011;69727;53.132;8.230;2023-06-19T07:50:03;8.48;;;5.07;;
80400;SDS011;69727;53.132;8.230;2023-06-19T07:52:29;7.43;;;5.15;;
80400;SDS011;69727;53.132;8.230;2023-06-19T07:54:55;8.57;;;5.80;;
80400;SDS011;69727;53.132;8.230;2023-06-19T07:57:22;8.75;;;5.97;;
80400;SDS011;69727;53.132;8.230;2023-06-19T07:59:49;9.15;;;5.57;;
80400;SDS011;69727;53.132;8.230;2023-06-19T08:02:15;9.10;;;5.18;;
80400;SDS011;69727;53.132;8.230;2023-06-19T08:04:41;6.40;;;5.00;;
80400;SDS011;69727;53.132;8.230;2023-06-19T08:07:07;9.98;;;4.57;;
80400;SDS011;69727;53.132;8.230;2023-06-19T08:09:32;7.57;;;5.20;;
80400;SDS011;69727;53.132;8.230;2023-06-19T08:11:58;8.52;;;5.25;;
80400;SDS011;69727;53.132;8.230;2023-06-19T08:14:24;7.43;;;5.20;;
80400;SDS011;69727;53.132;8.230;2023-06-19T08:16:49;6.97;;;4.55;;
80400;SDS011;69727;53.132;8.230;2023-06-19T08:19:15;7.38;;;4.13;;
80400;SDS011;69727;53.132;8.230;2023-06-19T08:21:40;5.93;;;3.83;;
80400;SDS011;69727;53.132;8.230;2023-06-19T08:24:05;16.73;;;4.57;;
80400;SDS011;69727;53.132;8.230;2023-06-19T08:26:31;8.13;;;3.80;;
80400;SDS011;69727;53.132;8.230;2023-06-19T08:28:57;6.60;;;3.85;;
80400;SDS011;69727;53.132;8.230;2023-06-19T08:31:22;8.65;;;3.85;;
80400;SDS011;69727;53.132;8.230;2023-06-19T08:33:52;7.40;;;4.00;;
80400;SDS011;69727;53.132;8.230;2023-06-19T08:36:18;6.80;;;3.90;;
80400;SDS011;69727;53.132;8.230;2023-06-19T08:38:44;5.32;;;3.78;;
80400;SDS011;69727;53.132;8.230;2023-06-19T08:41:12;6.18;;;3.50;;
80400;SDS011;69727;53.132;8.230;2023-06-19T08:43:37;5.53;;;3.40;;
80400;SDS011;69727;53.132;8.230;2023-06-19T08:46:07;6.88;;;3.80;;
80400;SDS011;69727;53.132;8.230;2023-06-19T08:48:36;6.25;;;3.97;;
80400;SDS011;69727;53.132;8.230;2023-06-19T08:51:02;7.60;;;4.07;;
80400;SDS011;69727;53.132;8.230;2023-06-19T08:53:29;9.68;;;4.20;;
80400;SDS011;69727;53.132;8.230;2023-06-19T08:55:56;7.10;;;4.13;;
80400;SDS011;69727;53.132;8.230;2023-06-19T08:58:23;5.75;;;3.75;;
80400;SDS011;69727;53.132;8.230;2023-06-19T09:00:49;5.55;;;3.72;;
80400;SDS011;69727;53.132;8.230;2023-06-19T09:03:19;5.35;;;3.45;;
80400;SDS011;69727;53.132;8.230;2023-06-19T09:05:46;5.65;;;3.05;;
80400;SDS011;69727;53.132;8.230;2023-06-19T09:08:15;13.38;;;3.90;;
80400;SDS011;69727;53.132;8.230;2023-06-19T09:10:41;5.97;;;3.40;;
80400;SDS011;69727;53.132;8.230;2023-06-19T09:13:07;5.53;;;3.30;;
80400;SDS011;69727;53.132;8.230;2023-06-19T09:15:36;4.57;;;2.80;;
80400;SDS011;69727;53.132;8.230;2023-06-19T09:18:06;6.13;;;3.22;;
80400;SDS011;69727;53.132;8.230;2023-06-19T09:20:42;6.45;;;3.17;;
80400;SDS011;69727;53.132;8.230;2023-06-19T09:23:12;5.90;;;3.17;;
80400;SDS011;69727;53.132;8.230;2023-06-19T09:28:30;4.50;;;2.80;;
80400;SDS011;69727;53.132;8.230;2023-06-19T09:33:25;5.00;;;2.90;;
80400;SDS011;69727;53.132;8.230;2023-06-19T09:35:53;5.15;;;2.70;;
80400;SDS011;69727;53.132;8.230;2023-06-19T09:40:47;5.50;;;2.75;;
80400;SDS011;69727;53.132;8.230;2023-06-19T09:43:15;6.68;;;2.80;;
80400;SDS011;69727;53.132;8.230;2023-06-19T09:48:12;4.45;;;2.70;;
80400;SDS011;69727;53.132;8.230;2023-06-19T09:50:43;5.00;;;3.22;;
80400;SDS011;69727;53.132;8.230;2023-06-19T09:53:10;5.70;;;3.10;;
80400;SDS011;69727;53.132;8.230;2023-06-19T09:55:36;5.18;;;3.00;;
80400;SDS011;69727;53.132;8.230;2023-06-19T09:58:02;4.78;;;3.05;;
80400;SDS011;69727;53.132;8.230;2023-06-19T10:00:30;5.35;;;2.67;;
80400;SDS011;69727;53.132;8.230;2023-06-19T10:02:57;5.80;;;2.72;;
80400;SDS011;69727;53.132;8.230;2023-06-19T10:05:28;4.40;;;2.90;;
80400;SDS011;69727;53.132;8.230;2023-06-19T10:07:57;6.93;;;3.20;;
80400;SDS011;69727;53.132;8.230;2023-06-19T10:10:25;4.78;;;3.10;;
80400;SDS011;69727;53.132;8.230;2023-06-19T10:15:23;5.38;;;3.03;;
80400;SDS011;69727;53.132;8.230;2023-06-19T10:17:54;6.20;;;3.00;;
80400;SDS011;69727;53.132;8.230;2023-06-19T10:20:43;6.38;;;3.25;;
80400;SDS011;69727;53.132;8.230;2023-06-19T10:23:17;4.70;;;2.97;;
80400;SDS011;69727;53.132;8.230;2023-06-19T10:25:47;4.63;;;2.95;;
80400;SDS011;69727;53.132;8.230;2023-06-19T10:28:20;5.05;;;2.90;;
80400;SDS011;69727;53.132;8.230;2023-06-19T10:30:57;5.13;;;2.95;;
80400;SDS011;69727;53.132;8.230;2023-06-19T10:33:25;4.75;;;2.85;;
80400;SDS011;69727;53.132;8.230;2023-06-19T10:35:51;4.95;;;3.22;;
80400;SDS011;69727;53.132;8.230;2023-06-19T10:38:17;6.03;;;3.17;;
80400;SDS011;69727;53.132;8.230;2023-06-19T10:40:43;6.43;;;3.03;;
80400;SDS011;69727;53.132;8.230;2023-06-19T10:43:10;4.57;;;3.15;;
80400;SDS011;69727;53.132;8.230;2023-06-19T10:45:36;5.88;;;3.22;;
80400;SDS011;69727;53.132;8.230;2023-06-19T10:48:02;5.55;;;3.22;;
80400;SDS011;69727;53.132;8.230;2023-06-19T10:50:28;4.15;;;2.50;;
80400;SDS011;69727;53.132;8.230;2023-06-19T10:52:55;4.97;;;3.03;;
80400;SDS011;69727;53.132;8.230;2023-06-19T10:55:23;5.90;;;3.22;;
80400;SDS011;69727;53.132;8.230;2023-06-19T10:57:49;6.13;;;3.50;;
80400;SDS011;69727;53.132;8.230;2023-06-19T11:00:30;5.18;;;3.33;;
80400;SDS011;69727;53.132;8.230;2023-06-19T11:02:58;4.82;;;3.25;;
80400;SDS011;69727;53.132;8.230;2023-06-19T11:05:24;5.32;;;3.35;;
80400;SDS011;69727;53.132;8.230;2023-06-19T11:07:52;7.13;;;3.55;;
80400;SDS011;69727;53.132;8.230;2023-06-19T11:10:22;7.32;;;3.90;;
80400;SDS011;69727;53.132;8.230;2023-06-19T11:12:52;5.63;;;3.72;;
80400;SDS011;69727;53.132;8.230;2023-06-19T11:15:31;6.40;;;3.97;;
80400;SDS011;69727;53.132;8.230;2023-06-19T11:17:58;5.32;;;3.60;;
80400;SDS011;69727;53.132;8.230;2023-06-19T11:20:25;7.07;;;3.65;;
80400;SDS011;69727;53.132;8.230;2023-06-19T11:22:54;5.65;;;3.20;;
80400;SDS011;69727;53.132;8.230;2023-06-19T11:25:35;5.80;;;3.65;;
80400;SDS011;69727;53.132;8.230;2023-06-19T11:28:04;6.13;;;3.67;;
80400;SDS011;69727;53.132;8.230;2023-06-19T11:30:35;6.13;;;3.67;;
80400;SDS011;69727;53.132;8.230;2023-06-19T11:33:00;5.43;;;3.53;;
80400;SDS011;69727;53.132;8.230;2023-06-19T11:35:32;6.13;;;3.67;;
80400;SDS011;69727;53.132;8.230;2023-06-19T11:38:01;8.68;;;3.85;;
80400;SDS011;69727;53.132;8.230;2023-06-19T11:40:27;6.22;;;3.47;;
80400;SDS011;69727;53.132;8.230;2023-06-19T11:42:54;6.47;;;3.85;;
80400;SDS011;69727;53.132;8.230;2023-06-19T11:45:20;6.18;;;3.58;;
80400;SDS011;69727;53.132;8.230;2023-06-19T11:47:46;4.88;;;3.55;;
80400;SDS011;69727;53.132;8.230;2023-06-19T11:50:13;5.80;;;4.10;;
80400;SDS011;69727;53.132;8.230;2023-06-19T11:52:41;5.72;;;3.90;;
80400;SDS011;69727;53.132;8.230;2023-06-19T11:55:08;5.32;;;3.63;;
80400;SDS011;69727;53.132;8.230;2023-06-19T11:57:34;6.20;;;3.72;;
80400;SDS011;69727;53.132;8.230;2023-06-19T12:00:14;5.93;;;3.60;;
80400;SDS011;69727;53.132;8.230;2023-06-19T12:02:40;6.28;;;4.18;;
80400;SDS011;69727;53.132;8.230;2023-06-19T12:05:05;7.05;;;3.90;;
80400;SDS011;69727;53.132;8.230;2023-06-19T12:07:31;8.20;;;3.63;;
80400;SDS011;69727;53.132;8.230;2023-06-19T12:09:56;9.30;;;3.85;;
80400;SDS011;69727;53.132;8.230;2023-06-19T12:12:22;5.97;;;3.87;;
80400;SDS011;69727;53.132;8.230;2023-06-19T12:14:47;6.38;;;4.63;;
80400;SDS011;69727;53.132;8.230;2023-06-19T12:17:13;6.40;;;4.10;;
80400;SDS011;69727;53.132;8.230;2023-06-19T12:19:38;8.33;;;5.03;;
80400;SDS011;69727;53.132;8.230;2023-06-19T12:22:04;6.83;;;3.87;;
80400;SDS011;69727;53.132;8.230;2023-06-19T12:24:29;7.22;;;5.30;;
80400;SDS011;69727;53.132;8.230;2023-06-19T12:26:55;7.07;;;4.60;;
80400;SDS011;69727;53.132;8.230;2023-06-19T12:29:20;6.55;;;4.60;;
80400;SDS011;69727;53.132;8.230;2023-06-19T12:31:45;7.50;;;4.80;;
80400;SDS011;69727;53.132;8.230;2023-06-19T12:34:11;8.07;;;4.83;;
80400;SDS011;69727;53.132;8.230;2023-06-19T12:36:36;7.20;;;4.90;;
80400;SDS011;69727;53.132;8.230;2023-06-19T12:39:02;6.25;;;4.90;;
80400;SDS011;69727;53.132;8.230;2023-06-19T12:41:30;6.30;;;4.60;;
80400;SDS011;69727;53.132;8.230;2023-06-19T12:43:56;8.10;;;5.13;;
80400;SDS011;69727;53.132;8.230;2023-06-19T12:46:21;7.23;;;5.17;;
80400;SDS011;69727;53.132;8.230;2023-06-19T12:48:47;6.80;;;4.30;;
80400;SDS011;69727;53.132;8.230;2023-06-19T12:51:15;6.72;;;4.75;;
80400;SDS011;69727;53.132;8.230;2023-06-19T12:53:44;6.80;;;4.35;;
80400;SDS011;69727;53.132;8.230;2023-06-19T12:56:09;5.30;;;3.75;;
80400;SDS011;69727;53.132;8.230;2023-06-19T12:58:35;7.05;;;3.90;;
80400;SDS011;69727;53.132;8.230;2023-06-19T13:01:01;9.73;;;4.40;;
80400;SDS011;69727;53.132;8.230;2023-06-19T13:03:26;5.57;;;3.50;;
80400;SDS011;69727;53.132;8.230;2023-06-19T13:05:52;6.20;;;3.93;;
80400;SDS011;69727;53.132;8.230;2023-06-19T13:08:17;5.93;;;3.60;;
80400;SDS011;69727;53.132;8.230;2023-06-19T13:10:42;6.50;;;3.80;;
80400;SDS011;69727;53.132;8.230;2023-06-19T13:13:08;6.37;;;3.77;;
80400;SDS011;69727;53.132;8.230;2023-06-19T13:15:35;6.97;;;3.70;;
80400;SDS011;69727;53.132;8.230;2023-06-19T13:18:00;7.15;;;3.58;;
80400;SDS011;69727;53.132;8.230;2023-06-19T13:20:27;6.10;;;3.38;;
80400;SDS011;69727;53.132;8.230;2023-06-19T13:22:52;6.05;;;4.00;;
80400;SDS011;69727;53.132;8.230;2023-06-19T13:25:18;6.85;;;4.18;;
80400;SDS011;69727;53.132;8.230;2023-06-19T13:27:44;6.03;;;4.22;;
80400;SDS011;69727;53.132;8.230;2023-06-19T13:30:09;6.30;;;4.22;;
80400;SDS011;69727;53.132;8.230;2023-06-19T13:32:35;7.80;;;4.70;;
80400;SDS011;69727;53.132;8.230;2023-06-19T13:35:00;6.10;;;4.67;;
80400;SDS011;69727;53.132;8.230;2023-06-19T13:37:26;8.45;;;4.63;;
80400;SDS011;69727;53.132;8.230;2023-06-19T13:39:51;7.60;;;4.90;;
80400;SDS011;69727;53.132;8.230;2023-06-19T13:42:17;7.05;;;5.55;;
80400;SDS011;69727;53.132;8.230;2023-06-19T13:44:42;6.47;;;5.00;;
80400;SDS011;69727;53.132;8.230;2023-06-19T13:47:07;6.73;;;4.80;;
80400;SDS011;69727;53.132;8.230;2023-06-19T13:49:33;7.37;;;5.63;;
80400;SDS011;69727;53.132;8.230;2023-06-19T13:51:58;8.95;;;4.88;;
80400;SDS011;69727;53.132;8.230;2023-06-19T13:54:23;5.97;;;4.83;;
80400;SDS011;69727;53.132;8.230;2023-06-19T13:56:49;7.68;;;4.50;;
80400;SDS011;69727;53.132;8.230;2023-06-19T13:59:16;6.07;;;3.88;;
80400;SDS011;69727;53.132;8.230;2023-06-19T14:01:41;8.13;;;4.70;;
80400;SDS011;69727;53.132;8.230;2023-06-19T14:04:07;8.73;;;4.63;;
80400;SDS011;69727;53.132;8.230;2023-06-19T14:06:33;7.05;;;4.50;;
80400;SDS011;69727;53.132;8.230;2023-06-19T14:08:59;8.10;;;4.60;;
80400;SDS011;69727;53.132;8.230;2023-06-19T14:11:24;10.73;;;4.57;;
80400;SDS011;69727;53.132;8.230;2023-06-19T14:13:50;7.40;;;4.22;;
80400;SDS011;69727;53.132;8.230;2023-06-19T14:16:15;7.15;;;3.95;;
80400;SDS011;69727;53.132;8.230;2023-06-19T14:18:41;7.95;;;3.92;;
80400;SDS011;69727;53.132;8.230;2023-06-19T14:21:06;6.13;;;4.40;;
80400;SDS011;69727;53.132;8.230;2023-06-19T14:23:32;7.25;;;4.22;;
80400;SDS011;69727;53.132;8.230;2023-06-19T14:25:59;7.95;;;4.40;;
80400;SDS011;69727;53.132;8.230;2023-06-19T14:28:24;6.25;;;3.80;;
80400;SDS011;69727;53.132;8.230;2023-06-19T14:30:51;7.07;;;4.40;;
80400;SDS011;69727;53.132;8.230;2023-06-19T14:35:43;8.70;;;4.47;;
80400;SDS011;69727;53.132;8.230;2023-06-19T14:38:11;7.97;;;3.90;;
80400;SDS011;69727;53.132;8.230;2023-06-19T14:40:38;7.25;;;3.95;;
80400;SDS011;69727;53.132;8.230;2023-06-19T14:43:03;9.73;;;4.72;;
80400;SDS011;69727;53.132;8.230;2023-06-19T14:45:28;6.47;;;3.83;;
80400;SDS011;69727;53.132;8.230;2023-06-19T14:48:00;6.93;;;4.27;;
80400;SDS011;69727;53.132;8.230;2023-06-19T14:53:25;6.40;;;3.92;;
80400;SDS011;69727;53.132;8.230;2023-06-19T14:55:50;6.93;;;4.53;;
80400;SDS011;69727;53.132;8.230;2023-06-19T14:58:16;9.93;;;4.53;;
80400;SDS011;69727;53.132;8.230;2023-06-19T15:00:41;7.20;;;4.72;;
80400;SDS011;69727;53.132;8.230;2023-06-19T15:03:07;7.78;;;4.10;;
80400;SDS011;69727;53.132;8.230;2023-06-19T15:05:32;6.88;;;5.25;;
80400;SDS011;69727;53.132;8.230;2023-06-19T15:07:58;8.13;;;4.32;;